sensor_id;sensor_type;location;lat;lon;timestamp;pressure;altitude;pressure_sealevel;temperature;humidity
6506;BME280;3286;49.858;8.768;2022-11-21T00:01:21;98174.25;;;7.82;64.65
6506;BME280;3286;49.858;8.768;2022-11-21T00:03:48;98171.88;;;7.63;64.69
6506;BME280;3286;49.858;8.768;2022-11-21T00:06:15;98169.63;;;7.42;64.69
6506;BME280;3286;49.858;8.768;2022-11-21T00:08:42;98171.63;;;7.82;63.77
6506;BME280;3286;49.858;8.768;2022-11-21T00:11:09;98168.50;;;6.73;67.63
6506;BME280;3286;49.858;8.768;2022-11-21T00:13:36;98171.16;;;7.26;66.82
6506;BME280;3286;49.858;8.768;2022-11-21T00:16:05;98167.38;;;6.76;68.17
6506;BME280;3286;49.858;8.768;2022-11-21T00:18:35;98170.81;;;6.76;68.16
6506;BME280;3286;49.858;8.768;2022-11-21T00:21:05;98172.81;;;7.27;66.33
6506;BME280;3286;49.858;8.768;2022-11-21T00:23:32;98184.88;;;7.73;64.71
6506;BME280;3286;49.858;8.768;2022-11-21T00:26:05;98173.66;;;7.28;66.21
6506;BME280;3286;49.858;8.768;2022-11-21T00:28:32;98169.81;;;7.48;65.33
6506;BME280;3286;49.858;8.768;2022-11-21T00:31:00;98161.13;;;7.91;64.31
6506;BME280;3286;49.858;8.768;2022-11-21T00:33:28;98153.25;;;7.91;63.46
6506;BME280;3286;49.858;8.768;2022-11-21T00:35:58;98150.25;;;7.77;64.18
6506;BME280;3286;49.858;8.768;2022-11-21T00:38:26;98136.81;;;7.46;64.26
6506;BME280;3286;49.858;8.768;2022-11-21T00:40:52;98152.88;;;6.72;67.15
6506;BME280;3286;49.858;8.768;2022-11-21T00:43:19;98145.00;;;6.72;67.17
6506;BME280;3286;49.858;8.768;2022-11-21T00:45:46;98145.44;;;7.03;66.56
6506;BME280;3286;49.858;8.768;2022-11-21T00:48:12;98140.13;;;6.95;66.97
6506;BME280;3286;49.858;8.768;2022-11-21T00:50:40;98136.84;;;7.54;65.09
6506;BME280;3286;49.858;8.768;2022-11-21T00:53:07;98133.22;;;6.94;67.44
6506;BME280;3286;49.858;8.768;2022-11-21T00:55:33;98137.72;;;6.84;67.33
6506;BME280;3286;49.858;8.768;2022-11-21T00:58:03;98137.63;;;7.20;66.93
6506;BME280;3286;49.858;8.768;2022-11-21T01:00:30;98137.91;;;7.08;67.33
6506;BME280;3286;49.858;8.768;2022-11-21T01:02:59;98147.78;;;6.88;67.19
6506;BME280;3286;49.858;8.768;2022-11-21T01:05:28;98146.97;;;7.41;65.40
6506;BME280;3286;49.858;8.768;2022-11-21T01:07:59;98131.88;;;7.43;65.80
6506;BME280;3286;49.858;8.768;2022-11-21T01:10:26;98138.97;;;7.24;65.89
6506;BME280;3286;49.858;8.768;2022-11-21T01:13:00;98141.56;;;7.85;64.03
6506;BME280;3286;49.858;8.768;2022-11-21T01:15:26;98144.38;;;7.92;63.51
6506;BME280;3286;49.858;8.768;2022-11-21T01:17:53;98140.59;;;7.51;64.70
6506;BME280;3286;49.858;8.768;2022-11-21T01:20:20;98141.72;;;7.41;64.63
6506;BME280;3286;49.858;8.768;2022-11-21T01:22:49;98135.28;;;7.08;65.96
6506;BME280;3286;49.858;8.768;2022-11-21T01:25:18;98142.41;;;7.16;65.58
6506;BME280;3286;49.858;8.768;2022-11-21T01:27:44;98138.38;;;7.65;63.91
6506;BME280;3286;49.858;8.768;2022-11-21T01:30:12;98138.94;;;7.77;63.55
6506;BME280;3286;49.858;8.768;2022-11-21T01:32:39;98136.88;;;8.05;63.33
6506;BME280;3286;49.858;8.768;2022-11-21T01:35:06;98138.78;;;7.95;63.02
6506;BME280;3286;49.858;8.768;2022-11-21T01:37:35;98139.66;;;8.04;62.89
6506;BME280;3286;49.858;8.768;2022-11-21T01:40:05;98129.69;;;7.73;63.48
6506;BME280;3286;49.858;8.768;2022-11-21T01:42:53;98124.25;;;7.66;64.17
6506;BME280;3286;49.858;8.768;2022-11-21T01:48:34;98114.41;;;7.68;63.95
6506;BME280;3286;49.858;8.768;2022-11-21T01:51:08;98114.59;;;7.40;64.15
6506;BME280;3286;49.858;8.768;2022-11-21T01:53:38;98119.66;;;7.07;65.34
6506;BME280;3286;49.858;8.768;2022-11-21T01:56:07;98110.91;;;7.59;62.63
6506;BME280;3286;49.858;8.768;2022-11-21T01:58:37;98121.75;;;7.99;61.61
6506;BME280;3286;49.858;8.768;2022-11-21T02:01:04;98119.25;;;7.97;61.59
6506;BME280;3286;49.858;8.768;2022-11-21T02:03:34;98115.22;;;7.34;63.47
6506;BME280;3286;49.858;8.768;2022-11-21T02:06:01;98101.88;;;8.21;60.60
6506;BME280;3286;49.858;8.768;2022-11-21T02:08:28;98106.75;;;7.91;61.67
6506;BME280;3286;49.858;8.768;2022-11-21T02:11:04;98117.28;;;8.00;61.11
6506;BME280;3286;49.858;8.768;2022-11-21T02:13:35;98117.81;;;7.60;62.21
6506;BME280;3286;49.858;8.768;2022-11-21T02:16:04;98117.00;;;7.60;62.35
6506;BME280;3286;49.858;8.768;2022-11-21T02:18:31;98121.75;;;7.64;61.94
6506;BME280;3286;49.858;8.768;2022-11-21T02:21:02;98123.53;;;8.07;60.61
6506;BME280;3286;49.858;8.768;2022-11-21T02:23:34;98126.50;;;8.12;60.42
6506;BME280;3286;49.858;8.768;2022-11-21T02:26:06;98115.94;;;7.79;61.17
6506;BME280;3286;49.858;8.768;2022-11-21T02:28:33;98127.34;;;7.61;62.02
6506;BME280;3286;49.858;8.768;2022-11-21T02:30:59;98121.06;;;7.54;62.20
6506;BME280;3286;49.858;8.768;2022-11-21T02:33:27;98122.91;;;7.62;61.92
6506;BME280;3286;49.858;8.768;2022-11-21T02:35:56;98119.81;;;7.66;61.64
6506;BME280;3286;49.858;8.768;2022-11-21T02:38:28;98121.94;;;7.63;61.92
6506;BME280;3286;49.858;8.768;2022-11-21T02:41:00;98115.78;;;7.89;60.66
6506;BME280;3286;49.858;8.768;2022-11-21T02:43:35;98124.06;;;7.59;61.26
6506;BME280;3286;49.858;8.768;2022-11-21T02:46:05;98116.38;;;7.74;61.62
6506;BME280;3286;49.858;8.768;2022-11-21T02:48:32;98119.13;;;7.56;62.37
6506;BME280;3286;49.858;8.768;2022-11-21T02:50:59;98114.91;;;7.37;63.13
6506;BME280;3286;49.858;8.768;2022-11-21T02:53:26;98109.25;;;7.58;62.44
6506;BME280;3286;49.858;8.768;2022-11-21T02:55:52;98107.22;;;7.35;62.78
6506;BME280;3286;49.858;8.768;2022-11-21T02:58:19;98102.63;;;7.37;62.90
6506;BME280;3286;49.858;8.768;2022-11-21T03:00:47;98105.06;;;7.39;62.60
6506;BME280;3286;49.858;8.768;2022-11-21T03:03:14;98107.06;;;6.84;64.63
6506;BME280;3286;49.858;8.768;2022-11-21T03:05:43;98117.22;;;6.61;65.37
6506;BME280;3286;49.858;8.768;2022-11-21T03:08:10;98118.00;;;7.32;62.77
6506;BME280;3286;49.858;8.768;2022-11-21T03:10:36;98119.81;;;7.32;62.48
6506;BME280;3286;49.858;8.768;2022-11-21T03:13:05;98120.06;;;7.47;62.83
6506;BME280;3286;49.858;8.768;2022-11-21T03:15:34;98116.06;;;7.34;62.44
6506;BME280;3286;49.858;8.768;2022-11-21T03:18:03;98113.22;;;7.28;62.89
6506;BME280;3286;49.858;8.768;2022-11-21T03:20:30;98108.50;;;7.74;61.24
6506;BME280;3286;49.858;8.768;2022-11-21T03:22:59;98114.47;;;7.42;62.42
6506;BME280;3286;49.858;8.768;2022-11-21T03:25:25;98107.72;;;6.86;64.33
6506;BME280;3286;49.858;8.768;2022-11-21T03:27:53;98112.97;;;7.13;63.20
6506;BME280;3286;49.858;8.768;2022-11-21T03:30:22;98097.31;;;7.72;61.04
6506;BME280;3286;49.858;8.768;2022-11-21T03:32:49;98114.88;;;7.63;62.19
6506;BME280;3286;49.858;8.768;2022-11-21T03:35:18;98115.75;;;7.11;63.20
6506;BME280;3286;49.858;8.768;2022-11-21T03:37:47;98115.03;;;7.27;63.09
6506;BME280;3286;49.858;8.768;2022-11-21T03:40:14;98118.31;;;7.29;63.85
6506;BME280;3286;49.858;8.768;2022-11-21T03:42:42;98117.72;;;7.35;63.53
6506;BME280;3286;49.858;8.768;2022-11-21T03:45:09;98132.72;;;7.51;63.09
6506;BME280;3286;49.858;8.768;2022-11-21T03:47:35;98135.66;;;7.83;61.74
6506;BME280;3286;49.858;8.768;2022-11-21T03:50:02;98131.91;;;7.51;62.77
6506;BME280;3286;49.858;8.768;2022-11-21T03:52:30;98138.72;;;7.09;64.44
6506;BME280;3286;49.858;8.768;2022-11-21T03:54:57;98132.03;;;7.49;63.08
6506;BME280;3286;49.858;8.768;2022-11-21T03:57:24;98130.59;;;7.55;62.63
6506;BME280;3286;49.858;8.768;2022-11-21T03:59:51;98127.63;;;7.93;61.60
6506;BME280;3286;49.858;8.768;2022-11-21T04:02:17;98137.72;;;7.10;63.53
6506;BME280;3286;49.858;8.768;2022-11-21T04:04:44;98137.56;;;7.03;64.93
6506;BME280;3286;49.858;8.768;2022-11-21T04:07:10;98141.69;;;7.75;62.38
6506;BME280;3286;49.858;8.768;2022-11-21T04:09:38;98144.13;;;6.81;64.91
6506;BME280;3286;49.858;8.768;2022-11-21T04:12:05;98136.00;;;7.53;63.23
6506;BME280;3286;49.858;8.768;2022-11-21T04:14:32;98140.97;;;7.57;63.21
6506;BME280;3286;49.858;8.768;2022-11-21T04:16:59;98143.16;;;8.21;61.13
6506;BME280;3286;49.858;8.768;2022-11-21T04:19:25;98142.41;;;7.51;63.86
6506;BME280;3286;49.858;8.768;2022-11-21T04:21:54;98132.72;;;7.51;63.57
6506;BME280;3286;49.858;8.768;2022-11-21T04:24:21;98145.56;;;7.97;62.59
6506;BME280;3286;49.858;8.768;2022-11-21T04:26:49;98148.19;;;7.97;62.67
6506;BME280;3286;49.858;8.768;2022-11-21T04:29:16;98144.47;;;7.74;63.56
6506;BME280;3286;49.858;8.768;2022-11-21T04:31:43;98143.03;;;7.88;62.73
6506;BME280;3286;49.858;8.768;2022-11-21T04:34:12;98148.16;;;7.89;63.13
6506;BME280;3286;49.858;8.768;2022-11-21T04:36:41;98152.19;;;8.18;62.25
6506;BME280;3286;49.858;8.768;2022-11-21T04:39:08;98147.63;;;7.77;63.64
6506;BME280;3286;49.858;8.768;2022-11-21T04:41:34;98144.03;;;7.87;62.72
6506;BME280;3286;49.858;8.768;2022-11-21T04:44:04;98139.72;;;7.77;62.91
6506;BME280;3286;49.858;8.768;2022-11-21T04:46:30;98145.72;;;7.53;63.97
6506;BME280;3286;49.858;8.768;2022-11-21T04:48:57;98140.84;;;7.66;63.83
6506;BME280;3286;49.858;8.768;2022-11-21T04:51:24;98139.50;;;7.97;62.56
6506;BME280;3286;49.858;8.768;2022-11-21T04:53:50;98134.72;;;8.09;61.75
6506;BME280;3286;49.858;8.768;2022-11-21T04:56:18;98140.41;;;7.88;61.90
6506;BME280;3286;49.858;8.768;2022-11-21T04:58:46;98135.88;;;8.06;61.43
6506;BME280;3286;49.858;8.768;2022-11-21T05:01:16;98138.19;;;7.58;63.23
6506;BME280;3286;49.858;8.768;2022-11-21T05:03:47;98143.13;;;7.61;63.51
6506;BME280;3286;49.858;8.768;2022-11-21T05:06:14;98132.69;;;7.78;62.68
6506;BME280;3286;49.858;8.768;2022-11-21T05:08:40;98148.38;;;7.61;62.59
6506;BME280;3286;49.858;8.768;2022-11-21T05:11:07;98140.41;;;7.45;63.27
6506;BME280;3286;49.858;8.768;2022-11-21T05:13:51;98134.69;;;7.92;62.57
6506;BME280;3286;49.858;8.768;2022-11-21T05:16:19;98135.97;;;7.80;62.27
6506;BME280;3286;49.858;8.768;2022-11-21T05:18:46;98137.41;;;7.66;62.47
6506;BME280;3286;49.858;8.768;2022-11-21T05:21:12;98139.53;;;7.71;62.49
6506;BME280;3286;49.858;8.768;2022-11-21T05:23:39;98141.59;;;7.93;61.74
6506;BME280;3286;49.858;8.768;2022-11-21T05:26:06;98145.03;;;7.51;62.47
6506;BME280;3286;49.858;8.768;2022-11-21T05:28:34;98145.78;;;8.29;61.18
6506;BME280;3286;49.858;8.768;2022-11-21T05:31:01;98141.00;;;7.65;62.30
6506;BME280;3286;49.858;8.768;2022-11-21T05:33:29;98142.13;;;7.62;61.98
6506;BME280;3286;49.858;8.768;2022-11-21T05:35:57;98145.31;;;7.74;61.47
6506;BME280;3286;49.858;8.768;2022-11-21T05:38:24;98140.38;;;7.71;62.63
6506;BME280;3286;49.858;8.768;2022-11-21T05:40:51;98143.19;;;7.78;61.43
6506;BME280;3286;49.858;8.768;2022-11-21T05:43:18;98146.00;;;7.85;61.75
6506;BME280;3286;49.858;8.768;2022-11-21T05:46:02;98141.91;;;7.82;61.59
6506;BME280;3286;49.858;8.768;2022-11-21T05:48:31;98129.75;;;7.89;61.49
6506;BME280;3286;49.858;8.768;2022-11-21T05:51:01;98128.78;;;7.98;61.38
6506;BME280;3286;49.858;8.768;2022-11-21T05:53:28;98131.88;;;7.94;61.58
6506;BME280;3286;49.858;8.768;2022-11-21T05:56:00;98136.75;;;7.72;62.11
6506;BME280;3286;49.858;8.768;2022-11-21T05:58:28;98140.31;;;8.06;60.73
6506;BME280;3286;49.858;8.768;2022-11-21T06:00:55;98127.41;;;8.37;59.67
6506;BME280;3286;49.858;8.768;2022-11-21T06:03:23;98133.72;;;8.02;59.89
6506;BME280;3286;49.858;8.768;2022-11-21T06:05:59;98147.03;;;7.57;61.58
6506;BME280;3286;49.858;8.768;2022-11-21T06:08:26;98153.25;;;7.21;63.12
6506;BME280;3286;49.858;8.768;2022-11-21T06:10:54;98145.41;;;7.64;61.51
6506;BME280;3286;49.858;8.768;2022-11-21T06:13:21;98145.75;;;8.12;60.18
6506;BME280;3286;49.858;8.768;2022-11-21T06:15:49;98145.34;;;7.91;60.33
6506;BME280;3286;49.858;8.768;2022-11-21T06:18:16;98141.47;;;7.60;61.53
6506;BME280;3286;49.858;8.768;2022-11-21T06:20:42;98142.69;;;7.74;61.28
6506;BME280;3286;49.858;8.768;2022-11-21T06:23:11;98144.63;;;7.64;61.59
6506;BME280;3286;49.858;8.768;2022-11-21T06:25:38;98145.00;;;7.77;60.62
6506;BME280;3286;49.858;8.768;2022-11-21T06:28:05;98150.00;;;7.62;61.20
6506;BME280;3286;49.858;8.768;2022-11-21T06:30:32;98145.34;;;7.82;60.62
6506;BME280;3286;49.858;8.768;2022-11-21T06:32:58;98147.25;;;7.11;62.44
6506;BME280;3286;49.858;8.768;2022-11-21T06:35:30;98154.25;;;7.55;60.97
6506;BME280;3286;49.858;8.768;2022-11-21T06:37:57;98156.19;;;7.88;60.02
6506;BME280;3286;49.858;8.768;2022-11-21T06:40:25;98153.41;;;8.40;58.38
6506;BME280;3286;49.858;8.768;2022-11-21T06:42:52;98163.91;;;7.81;59.46
6506;BME280;3286;49.858;8.768;2022-11-21T06:45:21;98162.72;;;7.75;60.20
6506;BME280;3286;49.858;8.768;2022-11-21T06:47:47;98164.97;;;8.13;58.75
6506;BME280;3286;49.858;8.768;2022-11-21T06:50:14;98168.69;;;7.86;58.91
6506;BME280;3286;49.858;8.768;2022-11-21T06:52:41;98162.97;;;7.90;59.17
6506;BME280;3286;49.858;8.768;2022-11-21T06:55:11;98179.63;;;7.73;59.91
6506;BME280;3286;49.858;8.768;2022-11-21T06:57:39;98184.00;;;7.90;60.05
6506;BME280;3286;49.858;8.768;2022-11-21T07:00:06;98177.84;;;7.73;60.36
6506;BME280;3286;49.858;8.768;2022-11-21T07:02:33;98171.09;;;8.14;59.11
6506;BME280;3286;49.858;8.768;2022-11-21T07:05:00;98169.47;;;8.21;58.48
6506;BME280;3286;49.858;8.768;2022-11-21T07:07:26;98175.38;;;8.15;58.89
6506;BME280;3286;49.858;8.768;2022-11-21T07:09:55;98169.66;;;8.36;58.34
6506;BME280;3286;49.858;8.768;2022-11-21T07:12:21;98174.81;;;8.62;56.87
6506;BME280;3286;49.858;8.768;2022-11-21T07:15:08;98175.81;;;8.53;57.06
6506;BME280;3286;49.858;8.768;2022-11-21T07:17:35;98175.94;;;7.92;59.15
6506;BME280;3286;49.858;8.768;2022-11-21T07:20:02;98175.22;;;8.24;58.35
6506;BME280;3286;49.858;8.768;2022-11-21T07:22:29;98176.69;;;8.19;59.15
6506;BME280;3286;49.858;8.768;2022-11-21T07:24:55;98182.69;;;8.46;57.92
6506;BME280;3286;49.858;8.768;2022-11-21T07:27:22;98180.41;;;8.76;56.77
6506;BME280;3286;49.858;8.768;2022-11-21T07:29:50;98177.69;;;8.26;58.12
6506;BME280;3286;49.858;8.768;2022-11-21T07:32:18;98175.44;;;8.48;58.88
6506;BME280;3286;49.858;8.768;2022-11-21T07:34:46;98176.72;;;8.35;58.14
6506;BME280;3286;49.858;8.768;2022-11-21T07:37:13;98175.00;;;8.69;57.42
6506;BME280;3286;49.858;8.768;2022-11-21T07:39:41;98179.59;;;8.75;57.26
6506;BME280;3286;49.858;8.768;2022-11-21T07:42:07;98178.16;;;8.81;56.65
6506;BME280;3286;49.858;8.768;2022-11-21T07:44:34;98181.59;;;8.98;56.34
6506;BME280;3286;49.858;8.768;2022-11-21T07:47:01;98179.06;;;9.46;55.65
6506;BME280;3286;49.858;8.768;2022-11-21T07:49:31;98182.03;;;9.43;54.90
6506;BME280;3286;49.858;8.768;2022-11-21T07:51:58;98183.03;;;9.34;54.59
6506;BME280;3286;49.858;8.768;2022-11-21T07:54:24;98191.25;;;9.47;56.29
6506;BME280;3286;49.858;8.768;2022-11-21T07:56:53;98175.97;;;8.93;57.11
6506;BME280;3286;49.858;8.768;2022-11-21T07:59:21;98183.72;;;9.27;55.73
6506;BME280;3286;49.858;8.768;2022-11-21T08:01:49;98183.53;;;9.21;55.61
6506;BME280;3286;49.858;8.768;2022-11-21T08:04:16;98189.31;;;9.33;56.19
6506;BME280;3286;49.858;8.768;2022-11-21T08:06:44;98178.97;;;9.79;55.43
6506;BME280;3286;49.858;8.768;2022-11-21T08:09:11;98171.91;;;9.63;54.71
6506;BME280;3286;49.858;8.768;2022-11-21T08:11:37;98177.56;;;10.00;54.01
6506;BME280;3286;49.858;8.768;2022-11-21T08:14:06;98177.97;;;9.80;54.90
6506;BME280;3286;49.858;8.768;2022-11-21T08:16:34;98176.94;;;9.90;54.62
6506;BME280;3286;49.858;8.768;2022-11-21T08:19:01;98182.25;;;8.67;58.17
6506;BME280;3286;49.858;8.768;2022-11-21T08:21:30;98169.94;;;9.65;55.88
6506;BME280;3286;49.858;8.768;2022-11-21T08:24:00;98168.66;;;10.01;54.76
6506;BME280;3286;49.858;8.768;2022-11-21T08:26:27;98184.72;;;9.18;56.64
6506;BME280;3286;49.858;8.768;2022-11-21T08:28:54;98176.25;;;9.96;54.79
6506;BME280;3286;49.858;8.768;2022-11-21T08:31:20;98188.59;;;9.64;55.86
6506;BME280;3286;49.858;8.768;2022-11-21T08:33:47;98175.41;;;10.04;54.42
6506;BME280;3286;49.858;8.768;2022-11-21T08:36:14;98171.63;;;9.58;55.59
6506;BME280;3286;49.858;8.768;2022-11-21T08:38:40;98179.44;;;9.26;57.09
6506;BME280;3286;49.858;8.768;2022-11-21T08:41:10;98174.00;;;9.20;56.83
6506;BME280;3286;49.858;8.768;2022-11-21T08:43:55;98174.47;;;9.32;56.15
6506;BME280;3286;49.858;8.768;2022-11-21T08:46:21;98161.41;;;9.55;55.42
6506;BME280;3286;49.858;8.768;2022-11-21T08:48:51;98165.56;;;9.41;56.14
6506;BME280;3286;49.858;8.768;2022-11-21T08:51:18;98158.19;;;9.20;56.43
6506;BME280;3286;49.858;8.768;2022-11-21T08:53:44;98160.00;;;9.03;57.37
6506;BME280;3286;49.858;8.768;2022-11-21T08:56:12;98154.66;;;9.44;56.24
6506;BME280;3286;49.858;8.768;2022-11-21T08:58:41;98167.09;;;8.86;56.90
6506;BME280;3286;49.858;8.768;2022-11-21T09:01:07;98154.53;;;8.30;59.73
6506;BME280;3286;49.858;8.768;2022-11-21T09:03:34;98160.22;;;10.06;55.14
6506;BME280;3286;49.858;8.768;2022-11-21T09:06:03;98156.25;;;8.72;56.63
6506;BME280;3286;49.858;8.768;2022-11-21T09:08:30;98173.94;;;8.45;58.64
6506;BME280;3286;49.858;8.768;2022-11-21T09:10:57;98172.53;;;9.01;57.51
6506;BME280;3286;49.858;8.768;2022-11-21T09:13:26;98172.38;;;8.61;58.16
6506;BME280;3286;49.858;8.768;2022-11-21T09:15:52;98171.22;;;8.88;57.01
6506;BME280;3286;49.858;8.768;2022-11-21T09:18:37;98167.94;;;8.86;56.42
6506;BME280;3286;49.858;8.768;2022-11-21T09:21:03;98162.22;;;9.55;55.31
6506;BME280;3286;49.858;8.768;2022-11-21T09:23:30;98169.41;;;9.13;56.63
6506;BME280;3286;49.858;8.768;2022-11-21T09:25:59;98160.13;;;9.42;55.59
6506;BME280;3286;49.858;8.768;2022-11-21T09:28:31;98148.84;;;10.05;53.42
6506;BME280;3286;49.858;8.768;2022-11-21T09:31:00;98159.25;;;10.30;52.61
6506;BME280;3286;49.858;8.768;2022-11-21T09:33:27;98146.59;;;10.25;51.63
6506;BME280;3286;49.858;8.768;2022-11-21T09:35:54;98154.31;;;10.27;52.38
6506;BME280;3286;49.858;8.768;2022-11-21T09:38:25;98156.72;;;10.13;52.60
6506;BME280;3286;49.858;8.768;2022-11-21T09:40:59;98144.28;;;10.54;51.60
6506;BME280;3286;49.858;8.768;2022-11-21T09:44:00;98150.00;;;9.71;52.75
6506;BME280;3286;49.858;8.768;2022-11-21T09:46:34;98144.72;;;9.71;53.40
6506;BME280;3286;49.858;8.768;2022-11-21T09:49:05;98156.31;;;10.56;52.31
6506;BME280;3286;49.858;8.768;2022-11-21T09:51:36;98162.97;;;9.24;54.09
6506;BME280;3286;49.858;8.768;2022-11-21T09:54:10;98156.72;;;10.13;52.66
6506;BME280;3286;49.858;8.768;2022-11-21T09:56:41;98153.03;;;10.54;50.39
6506;BME280;3286;49.858;8.768;2022-11-21T09:59:23;98145.31;;;10.13;52.59
6506;BME280;3286;49.858;8.768;2022-11-21T10:01:52;98143.91;;;10.02;52.11
6506;BME280;3286;49.858;8.768;2022-11-21T10:04:19;98134.34;;;10.79;51.05
6506;BME280;3286;49.858;8.768;2022-11-21T10:06:51;98129.63;;;11.58;48.82
6506;BME280;3286;49.858;8.768;2022-11-21T10:09:28;98123.56;;;11.19;48.56
6506;BME280;3286;49.858;8.768;2022-11-21T10:12:03;98122.91;;;10.87;49.73
6506;BME280;3286;49.858;8.768;2022-11-21T10:14:59;98123.94;;;10.31;50.42
6506;BME280;3286;49.858;8.768;2022-11-21T10:17:37;98126.75;;;9.98;51.78
6506;BME280;3286;49.858;8.768;2022-11-21T10:20:20;98124.97;;;8.86;53.75
6506;BME280;3286;49.858;8.768;2022-11-21T10:25:49;98105.03;;;10.51;51.31
6506;BME280;3286;49.858;8.768;2022-11-21T10:28:20;98101.50;;;10.58;50.13
6506;BME280;3286;49.858;8.768;2022-11-21T10:30:55;98095.06;;;11.14;49.11
6506;BME280;3286;49.858;8.768;2022-11-21T10:33:29;98103.13;;;10.83;49.89
6506;BME280;3286;49.858;8.768;2022-11-21T10:35:59;98101.34;;;10.05;51.63
6506;BME280;3286;49.858;8.768;2022-11-21T10:38:28;98110.28;;;9.96;51.95
6506;BME280;3286;49.858;8.768;2022-11-21T10:41:00;98104.75;;;10.37;50.34
6506;BME280;3286;49.858;8.768;2022-11-21T10:43:35;98097.16;;;9.88;50.79
6506;BME280;3286;49.858;8.768;2022-11-21T10:46:24;98097.81;;;8.60;54.49
6506;BME280;3286;49.858;8.768;2022-11-21T10:48:54;98096.41;;;9.70;52.46
6506;BME280;3286;49.858;8.768;2022-11-21T10:51:37;98082.69;;;10.30;50.38
6506;BME280;3286;49.858;8.768;2022-11-21T10:54:10;98099.66;;;7.92;56.23
6506;BME280;3286;49.858;8.768;2022-11-21T10:56:58;98071.16;;;9.45;52.60
6506;BME280;3286;49.858;8.768;2022-11-21T10:59:28;98069.06;;;9.95;51.06
6506;BME280;3286;49.858;8.768;2022-11-21T11:01:57;98067.38;;;9.39;51.39
6506;BME280;3286;49.858;8.768;2022-11-21T11:04:26;98062.06;;;10.57;48.46
6506;BME280;3286;49.858;8.768;2022-11-21T11:06:57;98056.47;;;10.75;49.47
6506;BME280;3286;49.858;8.768;2022-11-21T11:09:28;98057.88;;;10.48;49.51
6506;BME280;3286;49.858;8.768;2022-11-21T11:12:25;98056.66;;;10.27;49.13
6506;BME280;3286;49.858;8.768;2022-11-21T11:15:19;98049.44;;;11.57;46.67
6506;BME280;3286;49.858;8.768;2022-11-21T11:17:51;98035.38;;;12.30;45.73
6506;BME280;3286;49.858;8.768;2022-11-21T11:20:31;98038.97;;;12.44;44.74
6506;BME280;3286;49.858;8.768;2022-11-21T11:22:58;98039.06;;;11.56;46.30
6506;BME280;3286;49.858;8.768;2022-11-21T11:25:25;98030.81;;;10.46;48.83
6506;BME280;3286;49.858;8.768;2022-11-21T11:27:51;98020.25;;;8.96;51.87
6506;BME280;3286;49.858;8.768;2022-11-21T11:30:20;98016.03;;;10.13;49.39
6506;BME280;3286;49.858;8.768;2022-11-21T11:32:52;98015.94;;;9.11;52.70
6506;BME280;3286;49.858;8.768;2022-11-21T11:35:21;98009.00;;;10.05;49.73
6506;BME280;3286;49.858;8.768;2022-11-21T11:37:57;98010.28;;;10.33;49.63
6506;BME280;3286;49.858;8.768;2022-11-21T11:40:30;98003.88;;;10.04;49.04
6506;BME280;3286;49.858;8.768;2022-11-21T11:43:12;97998.09;;;10.08;49.02
6506;BME280;3286;49.858;8.768;2022-11-21T11:46:10;97991.59;;;10.87;46.93
6506;BME280;3286;49.858;8.768;2022-11-21T11:49:28;97993.75;;;9.92;48.32
6506;BME280;3286;49.858;8.768;2022-11-21T11:52:00;97987.59;;;10.92;46.92
6506;BME280;3286;49.858;8.768;2022-11-21T11:54:33;97980.81;;;11.19;45.61
6506;BME280;3286;49.858;8.768;2022-11-21T11:57:03;97975.91;;;11.16;45.01
6506;BME280;3286;49.858;8.768;2022-11-21T11:59:35;97970.53;;;11.24;45.43
6506;BME280;3286;49.858;8.768;2022-11-21T12:02:06;97960.03;;;11.68;44.15
6506;BME280;3286;49.858;8.768;2022-11-21T12:04:45;97952.22;;;11.08;46.02
6506;BME280;3286;49.858;8.768;2022-11-21T12:07:17;97954.00;;;12.46;43.27
6506;BME280;3286;49.858;8.768;2022-11-21T12:09:51;97948.94;;;12.86;42.70
6506;BME280;3286;49.858;8.768;2022-11-21T12:12:27;97946.16;;;11.87;44.51
6506;BME280;3286;49.858;8.768;2022-11-21T12:15:04;97947.50;;;11.98;44.07
6506;BME280;3286;49.858;8.768;2022-11-21T12:18:10;97940.88;;;11.87;44.37
6506;BME280;3286;49.858;8.768;2022-11-21T12:20:49;97928.31;;;12.75;42.78
6506;BME280;3286;49.858;8.768;2022-11-21T12:23:26;97926.03;;;12.72;43.66
6506;BME280;3286;49.858;8.768;2022-11-21T12:26:02;97924.19;;;13.21;42.40
6506;BME280;3286;49.858;8.768;2022-11-21T12:28:42;97929.78;;;13.40;41.54
6506;BME280;3286;49.858;8.768;2022-11-21T12:31:16;97909.88;;;13.84;40.78
6506;BME280;3286;49.858;8.768;2022-11-21T12:33:53;97906.09;;;12.83;40.25
6506;BME280;3286;49.858;8.768;2022-11-21T12:36:28;97902.59;;;12.34;42.42
6506;BME280;3286;49.858;8.768;2022-11-21T12:42:05;97897.88;;;13.13;41.40
6506;BME280;3286;49.858;8.768;2022-11-21T12:45:04;97908.97;;;10.79;45.14
6506;BME280;3286;49.858;8.768;2022-11-21T12:47:54;97911.44;;;11.32;45.11
6506;BME280;3286;49.858;8.768;2022-11-21T12:50:49;97906.94;;;11.91;43.69
6506;BME280;3286;49.858;8.768;2022-11-21T12:53:45;97915.03;;;10.34;47.13
6506;BME280;3286;49.858;8.768;2022-11-21T12:56:40;97908.06;;;10.86;46.69
6506;BME280;3286;49.858;8.768;2022-11-21T12:59:12;97897.44;;;10.65;46.31
6506;BME280;3286;49.858;8.768;2022-11-21T13:01:45;97898.50;;;11.00;45.99
6506;BME280;3286;49.858;8.768;2022-11-21T13:04:20;97889.53;;;11.16;46.00
6506;BME280;3286;49.858;8.768;2022-11-21T13:06:50;97875.81;;;12.22;43.84
6506;BME280;3286;49.858;8.768;2022-11-21T13:09:21;97866.19;;;12.91;42.63
6506;BME280;3286;49.858;8.768;2022-11-21T13:11:56;97858.13;;;13.19;41.92
6506;BME280;3286;49.858;8.768;2022-11-21T13:14:32;97852.50;;;13.76;40.34
6506;BME280;3286;49.858;8.768;2022-11-21T13:17:09;97849.34;;;13.19;41.33
6506;BME280;3286;49.858;8.768;2022-11-21T13:19:44;97848.63;;;12.35;43.09
6506;BME280;3286;49.858;8.768;2022-11-21T13:22:49;97843.00;;;13.20;41.64
6506;BME280;3286;49.858;8.768;2022-11-21T13:25:36;97849.09;;;13.00;41.90
6506;BME280;3286;49.858;8.768;2022-11-21T13:28:27;97841.56;;;12.49;43.14
6506;BME280;3286;49.858;8.768;2022-11-21T13:30:55;97844.38;;;12.47;42.80
6506;BME280;3286;49.858;8.768;2022-11-21T13:33:44;97837.03;;;12.42;43.33
6506;BME280;3286;49.858;8.768;2022-11-21T13:36:13;97829.84;;;12.01;43.30
6506;BME280;3286;49.858;8.768;2022-11-21T13:39:35;97822.03;;;12.21;43.21
6506;BME280;3286;49.858;8.768;2022-11-21T13:42:13;97825.91;;;12.19;43.35
6506;BME280;3286;49.858;8.768;2022-11-21T13:44:58;97810.81;;;12.12;43.52
6506;BME280;3286;49.858;8.768;2022-11-21T13:48:21;97809.41;;;12.23;43.84
6506;BME280;3286;49.858;8.768;2022-11-21T13:51:07;97812.38;;;12.07;45.15
6506;BME280;3286;49.858;8.768;2022-11-21T13:54:08;97811.50;;;12.28;45.42
6506;BME280;3286;49.858;8.768;2022-11-21T13:56:45;97804.22;;;12.01;45.59
6506;BME280;3286;49.858;8.768;2022-11-21T13:59:36;97800.91;;;11.99;45.74
6506;BME280;3286;49.858;8.768;2022-11-21T14:02:30;97793.53;;;11.88;46.19